KFKL

Venango Regional Airport

Franklin, Pennsylvania, USA
KFKL 230525Z 2306/2406 08006KT P6SM SKC FM231400 13010KT P6SM SCT250 FM240400 13009KT P6SM BKN100
Issued Valid From Valid To
Apr-23 @ 05:25 UTC
(4 hours ago)
Apr-23 @ 06:00 UTC
(4 hours ago)
Apr-24 @ 06:00 UTC
(in 20 hours)
Apr-23 @ 06:00 to Apr-23 @ 14:00
KFKL 230525Z 2306/2406 08006KT P6SM SKC
Wind Visibility Clouds
80° at 6 knots Greater than 6 miles
  • Clear skies
From Apr-23 @ 14:00 to Apr-24 @ 04:00
FM231400 13010KT P6SM SCT250
Wind Visibility Clouds
130° at 10 knots Greater than 6 miles
  • Scattered at 25,000' AGL
From Apr-24 @ 04:00 to Apr-24 @ 06:00
FM240400 13009KT P6SM BKN100
Wind Visibility Clouds
130° at 9 knots Greater than 6 miles
  • Broken at 10,000' AGL
KFKL 230525Z 2306/2406 08006KT P6SM SKC FM231400 13010KT P6SM SCT250 FM240400 13009KT P6SM BKN100
Issued Apr-23 @ 05:25 UTC
(4 hours ago)
Valid From Apr-23 @ 06:00 UTC
(4 hours ago)
Valid To Apr-24 @ 06:00 UTC
(in 20 hours)
Apr-23 @ 06:00 - Apr-23 @ 14:00
Wind Visibility
80° at 6 knots Greater than 6 miles
Clouds
  • Clear skies
From Apr-23 @ 14:00 - Apr-24 @ 04:00
Wind Visibility
130° at 10 knots Greater than 6 miles
Clouds
  • Scattered at 25,000' AGL
From Apr-24 @ 04:00 - Apr-24 @ 06:00
Wind Visibility
130° at 9 knots Greater than 6 miles
Clouds
  • Broken at 10,000' AGL